YPPHYGEL

Guest
Details From YPPH - Perth
To YGEL - Geraldton
Flight Number -
Tags Generated
Created
Modified
Stats Distance 201 nm / 373 km
Max Altitude 0 ft / 0 m
Waypoints 2
Social Downloads 4
Likes 0
Share VATSIM

Download

Looking for another format? Having issues loading an existing format? Contact us
Advertisement - Login to hide

Notes

Generated

Route

YPPH YGEL

ID Type Via Altitude Latitude Longitude Leg Dist Tot Dist Heading (true) Name
O YPPH APT - 0 ft / 0 m -31.95862˚ 115.95972˚ - 0 nm - -
O YGEL APT - 0 ft / 0 m -28.78796˚ 114.70038˚ 201 nm 201 nm 341° / 341° Geraldton

Altitude Profile

Advertisement - Login to hide

Weather


0- 5 10 15 20 25 30 35+ Temperature / ° C

Clouds and Precipitation
Forecast for 2017-12-16 00:00 UTC. Updated an hour ago

Ground ~20,000 ft ~40,000 ft Winds

YPPH

Details ICAO YPPH (PER)
Name Perth
Region Australia
Timezone Australia/Perth (UTC+8.0)
Stats Elevation 70 ft / 21 m (AMSL)
Location -31.939673° 115.966614°
Runways 2
Magnetic Variation 1.671° W

METAR

YPPH 152330Z 18006KT CAVOK 22/12 Q1008 NOSIG

Decode

TAF

TAF YPPH 152307Z 1600/1706 15007KT CAVOK FM160100 25007KT CAVOK FM160500 24017KT 9999 SCT030 FM161200 26014G25KT 9999 -SHRA SCT025 BKN035 FM170000 27020G30KT 9999 -SHRA SCT025 BKN050 INTER 1616/1706 26020G30KT 3000 SHRA SCT015

Decode

Departure Runways

ID Width Length Bearing (true) Bearing (mag) Surface Threshold Offset Overrun Length
03 151 ft / 46 m 11,390 ft / 3,472 m 13.89° 15.56° Asphalt 0 ft / 0 m 0 ft / 0 m
06 151 ft / 46 m 7,096 ft / 2,163 m 58.78° 60.45° Asphalt 0 ft / 0 m 0 ft / 0 m
21 151 ft / 46 m 11,390 ft / 3,472 m 193.88° 195.55° Asphalt 0 ft / 0 m 0 ft / 0 m
24 151 ft / 46 m 7,096 ft / 2,163 m 238.77° 240.44° Asphalt 0 ft / 0 m 0 ft / 0 m

YGEL

Details ICAO YGEL (GET)
Name Geraldton
Region Australia
Timezone Australia/Perth (UTC+8.0)
Stats Elevation 121 ft / 37 m (AMSL)
Location -28.791486° 114.704952°
Runways 3
Magnetic Variation 1.080° W

METAR

YGEL 152330Z AUTO 18013KT 9999 // OVC022 22/16 Q1009 RF00.0/000.0

Decode

TAF

TAF YGEL 152232Z 1600/1618 20012KT 9999 SCT020 FM160300 23017KT 9999 SCT030 FM161000 22014KT 9999 BKN025

Decode

Destination Runways

ID Width Length Bearing (true) Bearing (mag) Surface Threshold Offset Overrun Length
03 148 ft / 45 m 6,518 ft / 1,987 m 18.30° 19.38° Asphalt 0 ft / 0 m 194 ft / 59 m
06 102 ft / 31 m 2,253 ft / 687 m 79.36° 80.44° Dirt 0 ft / 0 m 561 ft / 171 m
14 164 ft / 50 m 3,106 ft / 947 m 142.42° 143.50° Dirt 0 ft / 0 m 0 ft / 0 m
21 148 ft / 45 m 6,518 ft / 1,987 m 198.30° 199.38° Asphalt 0 ft / 0 m 220 ft / 67 m
24 102 ft / 31 m 2,253 ft / 687 m 259.36° 260.44° Dirt 0 ft / 0 m 135 ft / 41 m
32 164 ft / 50 m 3,106 ft / 947 m 322.41° 323.49° Dirt 0 ft / 0 m 0 ft / 0 m

Popular Alternatives